createdAt,value
2022-11-25T00:00:51.969Z,100894.81
2022-11-25T00:03:20.024Z,100896.59
2022-11-25T00:05:47.978Z,100893.94
2022-11-25T00:08:15.759Z,100892.19
2022-11-25T00:10:44.964Z,100880.63
2022-11-25T00:13:12.730Z,100884.19
2022-11-25T00:15:40.572Z,100874.41
2022-11-25T00:18:08.423Z,100876.19
2022-11-25T00:20:38.487Z,100879.72
2022-11-25T00:23:06.288Z,100875.31
2022-11-25T00:25:34.029Z,100871.72
2022-11-25T00:28:03.213Z,100861.06
2022-11-25T00:30:30.976Z,100866.38
2022-11-25T00:32:58.729Z,100860.16
2022-11-25T00:35:26.457Z,100867.28
2022-11-25T00:37:54.168Z,100850.41
2022-11-25T00:40:21.903Z,100853.06
2022-11-25T00:43:07.073Z,100853.94
2022-11-25T00:45:36.285Z,100852.16
2022-11-25T00:48:04.154Z,100853.97
2022-11-25T00:50:31.981Z,100843.25
2022-11-25T00:53:00.359Z,100839.72
2022-11-25T00:55:48.893Z,100845.03
2022-11-25T00:58:16.712Z,100841.47
2022-11-25T01:00:45.958Z,100843.28
2022-11-25T01:03:13.759Z,100845.03
2022-11-25T01:05:41.513Z,100849.47
2022-11-25T01:08:09.311Z,100848.59
2022-11-25T01:10:37.156Z,100849.47
2022-11-25T01:13:05.085Z,100850.38
2022-11-25T01:15:32.858Z,100845.91
2022-11-25T01:18:02.171Z,100844.16
2022-11-25T01:20:29.934Z,100851.22
2022-11-25T01:22:57.781Z,100850.34
2022-11-25T01:25:25.646Z,100843.22
2022-11-25T01:27:53.417Z,100852.13
2022-11-25T01:30:21.239Z,100849.44
2022-11-25T01:32:49.010Z,100850.31
2022-11-25T01:35:18.240Z,100851.22
2022-11-25T01:37:46.024Z,100845.00
2022-11-25T01:40:14.044Z,100847.66
2022-11-25T01:42:44.545Z,100844.09
2022-11-25T01:45:35.805Z,100847.59
2022-11-25T01:48:12.524Z,100843.16
2022-11-25T01:50:43.385Z,100852.03
2022-11-25T01:53:15.084Z,100844.06
2022-11-25T01:55:45.847Z,100832.50
2022-11-25T01:58:18.954Z,100840.47
2022-11-25T02:00:51.330Z,100824.47
2022-11-25T02:03:21.681Z,100833.34
2022-11-25T02:05:57.409Z,100828.00
2022-11-25T02:08:26.566Z,100820.00
2022-11-25T02:10:56.401Z,100824.41
2022-11-25T02:13:27.791Z,100817.31
2022-11-25T02:15:55.565Z,100818.19
2022-11-25T02:18:23.370Z,100826.19
2022-11-25T02:20:52.829Z,100828.84
2022-11-25T02:23:32.405Z,100821.75
2022-11-25T02:26:01.822Z,100822.63
2022-11-25T02:28:32.301Z,100820.81
2022-11-25T02:31:00.765Z,100832.41
2022-11-25T02:33:29.891Z,100837.72
2022-11-25T02:35:59.585Z,100837.72
2022-11-25T02:38:32.088Z,100843.91
2022-11-25T02:41:03.780Z,100847.50
2022-11-25T02:43:31.659Z,100839.50
2022-11-25T02:46:02.418Z,100837.72
2022-11-25T02:49:01.316Z,100839.50
2022-11-25T02:51:24.417Z,100843.97
2022-11-25T02:53:55.519Z,100843.94
2022-11-25T02:56:29.378Z,100836.81
2022-11-25T02:58:57.187Z,100841.28
2022-11-25T03:01:24.993Z,100844.84
2022-11-25T03:03:52.818Z,100843.03
2022-11-25T03:06:20.749Z,100841.25
2022-11-25T03:08:48.480Z,100846.56
2022-11-25T03:11:16.271Z,100847.47
2022-11-25T03:13:45.436Z,100845.66
2022-11-25T03:16:13.548Z,100847.44
2022-11-25T03:18:41.302Z,100846.53
2022-11-25T03:21:09.128Z,100843.84
2022-11-25T03:23:36.830Z,100857.19
2022-11-25T03:26:07.123Z,100851.84
2022-11-25T03:28:34.807Z,100851.84
2022-11-25T03:31:04.010Z,100858.97
2022-11-25T03:33:31.768Z,100858.94
2022-11-25T03:35:59.496Z,100852.72
2022-11-25T03:38:27.283Z,100859.81
2022-11-25T03:40:55.044Z,100865.16
2022-11-25T03:43:22.817Z,100877.59
2022-11-25T03:45:51.104Z,100877.59
2022-11-25T03:48:20.262Z,100882.94
2022-11-25T03:50:49.326Z,100878.53
2022-11-25T03:53:17.065Z,100889.19
2022-11-25T03:55:44.795Z,100898.97
2022-11-25T03:58:12.589Z,100895.38
2022-11-25T04:00:40.584Z,100903.38
2022-11-25T04:03:08.343Z,100900.72
2022-11-25T04:05:37.484Z,100906.94
2022-11-25T04:08:05.472Z,100912.31
2022-11-25T04:10:33.216Z,100902.53
2022-11-25T04:12:59.942Z,100912.31
2022-11-25T04:15:27.694Z,100914.09
2022-11-25T04:17:55.415Z,100921.22
2022-11-25T04:20:23.189Z,100934.59
2022-11-25T04:22:52.285Z,100943.47
2022-11-25T04:25:20.201Z,100936.34
2022-11-25T04:27:47.988Z,100935.44
2022-11-25T04:30:15.872Z,100943.47
2022-11-25T04:32:43.603Z,100932.81
2022-11-25T04:35:11.332Z,100938.16
2022-11-25T04:37:39.145Z,100933.69
2022-11-25T04:40:09.813Z,100931.91
2022-11-25T04:42:39.566Z,100933.69
2022-11-25T04:45:25.898Z,100939.94
2022-11-25T04:47:53.692Z,100937.25
2022-11-25T04:50:22.933Z,100935.47
2022-11-25T04:52:51.227Z,100931.91
2022-11-25T04:55:20.365Z,100936.34
2022-11-25T04:57:49.190Z,100929.25
2022-11-25T05:00:16.727Z,100927.47
2022-11-25T05:02:44.554Z,100939.06
2022-11-25T05:05:12.268Z,100943.50
2022-11-25T05:07:40.126Z,100950.63
2022-11-25T05:10:09.488Z,100955.97
2022-11-25T05:12:39.401Z,100959.53
2022-11-25T05:15:08.599Z,100950.63
2022-11-25T05:17:36.539Z,100953.31
2022-11-25T05:20:05.456Z,100945.34
2022-11-25T05:22:34.916Z,100937.31
2022-11-25T05:25:02.928Z,100932.00
2022-11-25T05:27:30.629Z,100932.00
2022-11-25T05:29:59.716Z,100921.34
2022-11-25T05:32:27.372Z,100932.00
2022-11-25T05:34:55.098Z,100931.13
2022-11-25T05:37:24.521Z,100946.25
2022-11-25T05:39:52.693Z,100950.72
2022-11-25T05:42:20.563Z,100959.56
2022-11-25T05:44:48.293Z,100958.72
2022-11-25T05:47:17.411Z,100960.50
2022-11-25T05:49:45.116Z,100963.16
2022-11-25T05:52:12.864Z,100961.38
2022-11-25T05:54:40.528Z,100975.59
2022-11-25T05:57:08.230Z,100974.72
2022-11-25T05:59:35.904Z,100976.50
2022-11-25T06:02:03.666Z,100979.16
2022-11-25T06:04:32.855Z,100980.03
2022-11-25T06:07:00.603Z,100981.81
2022-11-25T06:09:28.352Z,100978.28
2022-11-25T06:11:56.061Z,100987.16
2022-11-25T06:14:23.809Z,100985.34
2022-11-25T06:16:51.809Z,100984.50
2022-11-25T06:19:19.514Z,100992.50
2022-11-25T06:21:48.733Z,100993.38
2022-11-25T06:24:16.564Z,100996.06
2022-11-25T06:26:44.270Z,101003.19
2022-11-25T06:29:12.018Z,101009.41
2022-11-25T06:31:39.773Z,101008.53
2022-11-25T06:34:09.195Z,101018.28
2022-11-25T06:36:36.908Z,101026.31
2022-11-25T06:39:06.157Z,101025.44
2022-11-25T06:41:33.871Z,101028.09
2022-11-25T06:44:01.762Z,101030.75
2022-11-25T06:46:29.562Z,101028.06
2022-11-25T06:48:59.870Z,101036.06
2022-11-25T06:51:27.788Z,101036.09
2022-11-25T06:53:55.518Z,101042.31
2022-11-25T06:56:26.796Z,101027.19
2022-11-25T06:58:55.382Z,101049.44
2022-11-25T07:01:24.902Z,101056.53
2022-11-25T07:03:54.453Z,101054.75
2022-11-25T07:06:22.961Z,101061.00
2022-11-25T07:08:50.941Z,101061.00
2022-11-25T07:11:21.641Z,101061.00
2022-11-25T07:13:53.372Z,101069.91
2022-11-25T07:16:21.260Z,101071.69
2022-11-25T07:18:49.634Z,101067.22
2022-11-25T07:21:19.170Z,101076.13
2022-11-25T07:23:47.927Z,101077.91
2022-11-25T07:26:19.180Z,101087.69
2022-11-25T07:28:47.066Z,101087.69
2022-11-25T07:31:24.310Z,101097.50
2022-11-25T07:33:56.805Z,101100.16
2022-11-25T07:36:24.970Z,101107.28
2022-11-25T07:38:52.932Z,101117.03
2022-11-25T07:41:22.576Z,101113.50
2022-11-25T07:43:52.344Z,101119.75
2022-11-25T07:46:26.823Z,101127.75
2022-11-25T07:48:56.103Z,101128.63
2022-11-25T07:51:25.762Z,101127.75
2022-11-25T07:53:55.047Z,101131.28
2022-11-25T07:56:23.052Z,101128.63
2022-11-25T07:58:50.910Z,101132.16
2022-11-25T08:01:19.861Z,101133.94
2022-11-25T08:03:50.703Z,101141.06
2022-11-25T08:06:20.287Z,101152.66
2022-11-25T08:08:48.567Z,101154.41
2022-11-25T08:11:18.869Z,101141.97
2022-11-25T08:13:47.386Z,101152.66
2022-11-25T08:16:17.564Z,101161.53
2022-11-25T08:18:45.816Z,101161.53
2022-11-25T08:21:16.777Z,101170.44
2022-11-25T08:23:47.529Z,101170.44
2022-11-25T08:26:18.718Z,101170.44
2022-11-25T08:28:47.059Z,101159.75
2022-11-25T08:31:17.095Z,101177.56
2022-11-25T08:33:45.642Z,101174.88
2022-11-25T08:36:15.471Z,101172.22
2022-11-25T08:38:44.065Z,101175.78
2022-11-25T08:41:13.727Z,101180.22
2022-11-25T08:43:41.722Z,101181.13
2022-11-25T08:46:11.428Z,101186.47
2022-11-25T08:48:39.482Z,101193.59
2022-11-25T08:51:11.205Z,101196.22
2022-11-25T08:53:41.280Z,101189.13
2022-11-25T08:56:09.626Z,101194.47
2022-11-25T08:58:38.348Z,101199.81
2022-11-25T09:01:08.133Z,101196.25
2022-11-25T09:03:39.669Z,101198.94
2022-11-25T09:06:08.968Z,101201.59
2022-11-25T09:08:37.550Z,101208.72
2022-11-25T09:11:08.009Z,101212.25
2022-11-25T09:13:36.364Z,101211.38
2022-11-25T09:16:04.872Z,101210.53
2022-11-25T09:18:33.125Z,101209.59
2022-11-25T09:21:01.096Z,101219.41
2022-11-25T09:23:28.827Z,101222.09
2022-11-25T09:25:58.565Z,101222.09
2022-11-25T09:28:28.053Z,101226.53
2022-11-25T09:30:55.787Z,101238.09
2022-11-25T09:33:24.196Z,101238.13
2022-11-25T09:35:51.925Z,101246.09
2022-11-25T09:38:19.624Z,101255.03
2022-11-25T09:40:55.388Z,101255.88
2022-11-25T09:43:54.869Z,101259.47
2022-11-25T09:46:46.118Z,101263.00
2022-11-25T09:49:31.902Z,101271.00
2022-11-25T09:52:08.499Z,101264.78
2022-11-25T09:54:39.999Z,101275.50
2022-11-25T09:57:22.748Z,101281.69
2022-11-25T10:00:05.455Z,101281.69
2022-11-25T10:02:36.416Z,101287.06
2022-11-25T10:05:09.732Z,101292.41
2022-11-25T10:07:41.293Z,101287.09
2022-11-25T10:10:19.127Z,101288.88
2022-11-25T10:12:49.995Z,101294.22
2022-11-25T10:15:22.199Z,101293.31
2022-11-25T10:17:52.135Z,101291.53
2022-11-25T10:20:23.515Z,101310.22
2022-11-25T10:22:55.145Z,101310.22
2022-11-25T10:25:25.037Z,101303.13
2022-11-25T10:27:59.144Z,101304.00
2022-11-25T10:30:34.468Z,101307.53
2022-11-25T10:33:08.538Z,101302.22
2022-11-25T10:35:41.363Z,101307.56
2022-11-25T10:38:18.950Z,101300.44
2022-11-25T10:40:49.780Z,101306.69
2022-11-25T10:43:17.561Z,101308.44
2022-11-25T10:45:52.240Z,101309.34
2022-11-25T10:48:32.586Z,101311.09
2022-11-25T10:51:14.534Z,101320.91
2022-11-25T10:53:42.281Z,101320.94
2022-11-25T10:56:13.023Z,101313.75
2022-11-25T10:58:42.444Z,101326.22
2022-11-25T11:01:17.919Z,101321.75
2022-11-25T11:03:51.608Z,101325.31
2022-11-25T11:06:32.448Z,101332.44
2022-11-25T11:09:00.177Z,101327.09
2022-11-25T11:11:28.185Z,101335.09
2022-11-25T11:14:12.818Z,101336.00
2022-11-25T11:16:43.150Z,101335.97
2022-11-25T11:19:23.059Z,101344.88
2022-11-25T11:21:52.382Z,101337.69
2022-11-25T11:24:29.835Z,101339.47
2022-11-25T11:27:05.718Z,101344.81
2022-11-25T11:29:33.606Z,101343.03
2022-11-25T11:32:04.729Z,101344.78
2022-11-25T11:34:53.742Z,101351.94
2022-11-25T11:37:40.402Z,101347.47
2022-11-25T11:40:25.466Z,101359.03
2022-11-25T11:43:03.824Z,101353.66
2022-11-25T11:45:59.887Z,101350.09
2022-11-25T11:48:39.167Z,101374.16
2022-11-25T11:51:19.798Z,101367.03
2022-11-25T11:54:01.389Z,101374.16
2022-11-25T11:56:38.597Z,101372.41
2022-11-25T11:59:29.154Z,101375.94
2022-11-25T12:02:15.058Z,101377.72
2022-11-25T12:04:47.610Z,101380.41
2022-11-25T12:07:21.587Z,101389.34
2022-11-25T12:09:56.483Z,101392.00
2022-11-25T12:12:33.772Z,101383.94
2022-11-25T12:15:06.831Z,101391.94
2022-11-25T12:17:43.593Z,101397.28
2022-11-25T12:20:20.750Z,101398.16
2022-11-25T12:22:54.937Z,101401.72
2022-11-25T12:25:24.919Z,101404.38
2022-11-25T12:27:59.444Z,101405.31
2022-11-25T12:30:35.039Z,101408.06
2022-11-25T12:33:09.309Z,101413.44
2022-11-25T12:35:50.067Z,101410.75
2022-11-25T12:38:24.656Z,101416.06
2022-11-25T12:41:01.856Z,101416.03
2022-11-25T12:43:37.840Z,101416.03
2022-11-25T12:46:14.522Z,101420.47
2022-11-25T12:48:44.038Z,101415.13
2022-11-25T12:51:41.482Z,101422.22
2022-11-25T12:54:20.534Z,101421.28
2022-11-25T12:57:06.237Z,101432.00
2022-11-25T13:00:06.049Z,101434.63
2022-11-25T13:03:00.091Z,101439.91
2022-11-25T13:05:55.506Z,101446.09
2022-11-25T13:08:40.338Z,101444.25
2022-11-25T13:11:43.809Z,101452.25
2022-11-25T13:14:22.793Z,101454.88
2022-11-25T13:16:51.862Z,101449.47
2022-11-25T13:19:20.737Z,101459.31
2022-11-25T13:22:04.309Z,101460.22
2022-11-25T13:24:35.683Z,101472.75
2022-11-25T13:27:05.215Z,101472.75
2022-11-25T13:30:03.886Z,101482.53
2022-11-25T13:32:40.612Z,101479.81
2022-11-25T13:35:36.540Z,101487.88
2022-11-25T13:38:48.866Z,101487.88
2022-11-25T13:41:26.276Z,101498.63
2022-11-25T13:44:01.987Z,101500.44
2022-11-25T13:46:38.533Z,101510.28
2022-11-25T13:49:08.267Z,101504.94
2022-11-25T13:51:36.018Z,101517.44
2022-11-25T13:54:07.714Z,101523.75
2022-11-25T13:56:38.381Z,101527.34
2022-11-25T13:59:22.000Z,101527.34
2022-11-25T14:01:55.899Z,101519.31
2022-11-25T14:04:41.202Z,101526.44
2022-11-25T14:07:23.371Z,101532.72
2022-11-25T14:10:01.542Z,101533.63
2022-11-25T14:12:44.511Z,101535.44
2022-11-25T14:15:28.884Z,101539.94
2022-11-25T14:19:17.282Z,101536.38
2022-11-25T14:21:49.642Z,101528.31
2022-11-25T14:24:29.802Z,101540.88
2022-11-25T14:26:59.405Z,101547.09
2022-11-25T14:29:31.375Z,101545.31
2022-11-25T14:32:03.073Z,101538.19
2022-11-25T14:34:35.212Z,101556.94
2022-11-25T14:37:11.679Z,101554.28
2022-11-25T14:39:46.418Z,101556.06
2022-11-25T14:42:17.559Z,101560.53
2022-11-25T14:44:49.964Z,101562.34
2022-11-25T14:47:23.371Z,101564.13
2022-11-25T14:50:18.858Z,101566.84
2022-11-25T14:52:43.786Z,101567.72
2022-11-25T14:55:12.848Z,101571.31
2022-11-25T14:57:47.258Z,101576.69
2022-11-25T15:00:18.437Z,101583.81
2022-11-25T15:02:55.043Z,101591.84
2022-11-25T15:05:26.156Z,101593.66
2022-11-25T15:08:00.880Z,101587.38
2022-11-25T15:10:43.369Z,101586.50
2022-11-25T15:13:20.554Z,101591.88
2022-11-25T15:15:51.316Z,101596.34
2022-11-25T15:18:22.561Z,101605.28
2022-11-25T15:20:54.539Z,101612.44
2022-11-25T15:23:29.272Z,101613.34
2022-11-25T15:25:57.806Z,101616.03
2022-11-25T15:28:25.593Z,101618.72
2022-11-25T15:31:00.147Z,101628.53
2022-11-25T15:33:30.113Z,101637.44
2022-11-25T15:35:57.885Z,101629.41
2022-11-25T15:38:41.127Z,101636.56
2022-11-25T15:41:18.361Z,101643.66
2022-11-25T15:43:48.840Z,101649.00
2022-11-25T15:46:18.931Z,101649.94
2022-11-25T15:48:48.391Z,101653.50
2022-11-25T15:51:30.627Z,101655.31
2022-11-25T15:54:02.929Z,101661.53
2022-11-25T15:56:34.362Z,101662.47
2022-11-25T15:59:02.303Z,101674.94
2022-11-25T16:01:31.709Z,101676.75
2022-11-25T16:04:18.692Z,101683.88
2022-11-25T16:06:55.677Z,101688.28
2022-11-25T16:09:25.292Z,101687.44
2022-11-25T16:11:53.108Z,101688.28
2022-11-25T16:14:27.372Z,101694.53
2022-11-25T16:17:02.942Z,101698.13
2022-11-25T16:19:38.001Z,101699.00
2022-11-25T16:22:06.847Z,101705.25
2022-11-25T16:24:47.480Z,101704.38
2022-11-25T16:27:19.083Z,101706.13
2022-11-25T16:29:50.706Z,101709.69
2022-11-25T16:32:21.558Z,101706.13
2022-11-25T16:34:49.971Z,101720.41
2022-11-25T16:37:17.683Z,101723.06
2022-11-25T16:39:45.359Z,101732.88
2022-11-25T16:42:20.602Z,101743.56
2022-11-25T16:44:49.940Z,101745.34
2022-11-25T16:47:22.706Z,101745.31
2022-11-25T16:49:50.438Z,101752.47
2022-11-25T16:52:18.371Z,101749.78
2022-11-25T16:54:47.290Z,101750.66
2022-11-25T16:57:19.462Z,101765.78
2022-11-25T16:59:53.226Z,101765.78
2022-11-25T17:02:25.298Z,101772.00
2022-11-25T17:04:53.077Z,101783.56
2022-11-25T17:07:37.976Z,101790.72
2022-11-25T17:10:07.112Z,101800.53
2022-11-25T17:12:36.947Z,101802.34
2022-11-25T17:15:09.115Z,101811.22
2022-11-25T17:17:38.328Z,101805.00
2022-11-25T17:20:07.647Z,101812.13
2022-11-25T17:22:39.252Z,101821.06
2022-11-25T17:25:07.936Z,101823.75
2022-11-25T17:27:35.758Z,101821.06
2022-11-25T17:30:06.481Z,101827.28
2022-11-25T17:32:34.601Z,101837.03
2022-11-25T17:35:03.666Z,101832.56
2022-11-25T17:37:32.869Z,101845.94
2022-11-25T17:40:00.634Z,101850.38
2022-11-25T17:42:31.457Z,101854.81
2022-11-25T17:44:59.603Z,101857.47
2022-11-25T17:47:27.447Z,101868.16
2022-11-25T17:49:55.332Z,101868.16
2022-11-25T17:52:24.644Z,101879.72
2022-11-25T17:54:52.313Z,101886.81
2022-11-25T17:57:22.656Z,101885.91
2022-11-25T17:59:50.608Z,101885.03
2022-11-25T18:02:20.046Z,101890.41
2022-11-25T18:04:48.067Z,101893.94
2022-11-25T18:07:15.816Z,101908.22
2022-11-25T18:09:45.395Z,101902.88
2022-11-25T18:12:18.045Z,101915.31
2022-11-25T18:14:46.325Z,101925.16
2022-11-25T18:17:17.183Z,101933.16
2022-11-25T18:19:49.856Z,101918.91
2022-11-25T18:22:21.540Z,101920.66
2022-11-25T18:24:50.669Z,101928.69
2022-11-25T18:27:22.929Z,101926.88
2022-11-25T18:29:51.496Z,101933.97
2022-11-25T18:32:19.285Z,101936.63
2022-11-25T18:34:47.108Z,101943.81
2022-11-25T18:37:14.913Z,101944.75
2022-11-25T18:39:43.123Z,101945.72
2022-11-25T18:42:26.742Z,101958.25
2022-11-25T18:44:56.133Z,101961.88
2022-11-25T18:47:24.230Z,101966.28
2022-11-25T18:49:55.770Z,101968.06
2022-11-25T18:52:24.249Z,101968.06
2022-11-25T18:54:52.020Z,101975.16
2022-11-25T18:57:21.777Z,101970.69
2022-11-25T19:00:10.352Z,101976.00
2022-11-25T19:02:38.033Z,101987.59
2022-11-25T19:05:16.570Z,101995.63
2022-11-25T19:07:44.547Z,101992.00
2022-11-25T19:10:13.907Z,102000.88
2022-11-25T19:12:45.267Z,102002.66
2022-11-25T19:15:16.443Z,102001.69
2022-11-25T19:17:46.641Z,102003.38
2022-11-25T19:20:17.807Z,102002.44
2022-11-25T19:22:45.698Z,102004.13
2022-11-25T19:25:13.615Z,102021.84
2022-11-25T19:27:46.500Z,102018.16
2022-11-25T19:30:18.298Z,102021.72
2022-11-25T19:32:48.360Z,102027.91
2022-11-25T19:35:18.626Z,102032.31
2022-11-25T19:37:46.499Z,102035.78
2022-11-25T19:40:19.099Z,102037.53
2022-11-25T19:42:48.486Z,102041.88
2022-11-25T19:45:17.533Z,102048.97
2022-11-25T19:47:46.598Z,102048.00
2022-11-25T19:50:21.875Z,102051.47
2022-11-25T19:52:49.840Z,102058.56
2022-11-25T19:55:19.671Z,102060.31
2022-11-25T19:57:50.055Z,102057.59
2022-11-25T20:00:19.740Z,102058.41
2022-11-25T20:02:49.810Z,102069.06
2022-11-25T20:05:23.495Z,102076.16
2022-11-25T20:07:51.478Z,102076.97
2022-11-25T20:10:21.699Z,102084.94
2022-11-25T20:12:51.175Z,102084.94
2022-11-25T20:15:19.329Z,102092.00
2022-11-25T20:17:49.119Z,102094.63
2022-11-25T20:20:23.156Z,102106.13
2022-11-25T20:22:56.759Z,102109.53
2022-11-25T20:25:25.204Z,102116.56
2022-11-25T20:27:55.145Z,102115.69
2022-11-25T20:30:25.100Z,102126.34
2022-11-25T20:32:53.276Z,102121.91
2022-11-25T20:35:21.936Z,102130.75
2022-11-25T20:37:57.562Z,102130.69
2022-11-25T20:40:29.908Z,102136.94
2022-11-25T20:42:59.056Z,102126.16
2022-11-25T20:45:26.912Z,102137.72
2022-11-25T20:47:55.379Z,102140.38
2022-11-25T20:50:23.527Z,102143.88
2022-11-25T20:52:51.431Z,102149.16
2022-11-25T20:55:23.358Z,102146.44
2022-11-25T20:57:51.817Z,102153.53
2022-11-25T21:00:23.201Z,102151.69
2022-11-25T21:02:51.551Z,102151.63
2022-11-25T21:05:19.828Z,102157.88
2022-11-25T21:07:48.664Z,102154.25
2022-11-25T21:10:23.819Z,102155.06
2022-11-25T21:12:51.954Z,102171.06
2022-11-25T21:15:22.979Z,102169.22
2022-11-25T21:17:51.028Z,102186.94
2022-11-25T21:20:20.084Z,102179.81
2022-11-25T21:22:51.131Z,102187.81
2022-11-25T21:25:20.895Z,102181.50
2022-11-25T21:27:50.332Z,102186.84
2022-11-25T21:30:21.987Z,102190.34
2022-11-25T21:32:51.885Z,102190.31
2022-11-25T21:35:19.609Z,102193.00
2022-11-25T21:37:47.683Z,102195.63
2022-11-25T21:40:31.163Z,102203.56
2022-11-25T21:42:59.204Z,102211.50
2022-11-25T21:45:28.357Z,102209.69
2022-11-25T21:47:56.231Z,102209.59
2022-11-25T21:50:24.398Z,102225.56
2022-11-25T21:52:52.152Z,102225.47
2022-11-25T21:55:19.920Z,102235.19
2022-11-25T21:57:47.755Z,102234.25
2022-11-25T22:00:23.287Z,102239.53
2022-11-25T22:02:53.935Z,102238.66
2022-11-25T22:05:25.751Z,102246.63
2022-11-25T22:07:54.898Z,102249.25
2022-11-25T22:10:23.789Z,102247.41
2022-11-25T22:12:51.933Z,102252.66
2022-11-25T22:15:22.333Z,102248.19
2022-11-25T22:17:54.403Z,102247.28
2022-11-25T22:20:31.257Z,102259.66
2022-11-25T22:22:59.283Z,102262.25
2022-11-25T22:25:29.922Z,102263.09
2022-11-25T22:27:58.098Z,102264.84
2022-11-25T22:30:25.967Z,102267.50
2022-11-25T22:33:00.670Z,102267.47
2022-11-25T22:35:29.707Z,102277.19
2022-11-25T22:37:57.626Z,102277.16
2022-11-25T22:40:25.878Z,102281.59
2022-11-25T22:42:56.361Z,102271.75
2022-11-25T22:45:30.800Z,102288.59
2022-11-25T22:48:04.264Z,102282.31
2022-11-25T22:50:34.630Z,102292.94
2022-11-25T22:53:03.242Z,102293.78
2022-11-25T22:55:33.354Z,102298.13
2022-11-25T22:58:04.616Z,102309.63
2022-11-25T23:00:35.357Z,102306.03
2022-11-25T23:03:07.154Z,102321.13
2022-11-25T23:05:36.765Z,102324.69
2022-11-25T23:08:12.395Z,102319.34
2022-11-25T23:10:40.785Z,102328.41
2022-11-25T23:13:08.738Z,102327.56
2022-11-25T23:15:37.595Z,102327.56
2022-11-25T23:18:13.422Z,102319.56
2022-11-25T23:20:41.380Z,102328.44
2022-11-25T23:23:15.519Z,102327.56
2022-11-25T23:25:43.661Z,102322.22
2022-11-25T23:28:11.678Z,102330.16
2022-11-25T23:30:40.104Z,102334.56
2022-11-25T23:33:18.149Z,102326.44
2022-11-25T23:35:46.153Z,102329.03
2022-11-25T23:38:22.366Z,102337.84
2022-11-25T23:40:50.473Z,102333.34
2022-11-25T23:43:19.185Z,102345.72
2022-11-25T23:45:50.694Z,102348.34
2022-11-25T23:48:22.681Z,102352.66
2022-11-25T23:50:51.632Z,102351.72
2022-11-25T23:53:24.785Z,102353.41
2022-11-25T23:55:52.879Z,102361.28
2022-11-25T23:58:23.112Z,102356.75
